Airfield :
LOGIN :

Register | Disclaimer

   EN    FR    IT 

 










Legend :    VFR   Marginal VFR   IFR   Intensive IFR   Very Intensive IFR
Visi :
Ceiling :
>= 8 km
>= 3000ft
5 to 8 km
1000 to 3000 ft
1500m to 5 km
500 to 1000 ft
800 to 1500m
200 to 500 ft
< 800m
< 200 ft
Symbols :   Thunderstorms  Fog  Heavy snow  Heavy precipitations  Wind > 20 kt
SIGMETs :     Misc.  Thunderstorms  Icing  Turbulence  Mountain Waves  Volcanic Ashes







- Airport Elevation : 14 ft
- IATA code : BRE


EDDW - Bremen Neuenland

CURRENT METAR :
  • 160820Z 15005KT 090V240 9999 FEW022 20/14 Q1019 NOSIG

EXPIRED METARs :
  • 160750Z 15004KT 100V190 CAVOK 19/15 Q1019 NOSIG
  • 160720Z 14004KT 100V190 CAVOK 18/14 Q1019 NOSIG
  • 160650Z 16003KT 110V210 CAVOK 17/14 Q1018 NOSIG
  • 160620Z 19003KT 160V220 CAVOK 16/14 Q1018 NOSIG
  • 160550Z VRB02KT CAVOK 15/13 Q1018 NOSIG

TAF TAF EDDW
Valid from the 16 at 06:00 until the 17 at 06:00 UTC


160500Z 1606/1706 VRB03KT CAVOK
BECMG 1606/1609 24008KT
PROB30
TEMPO 1614/1618 24013KT SHRA SCT040CB
BECMG 1615/1617 31006KT
BECMG 1618/1620 VRB02KT
TEMPO 1701/1704 2000 BCFG
PROB30
TEMPO 1702/1704 0700 FG
No reported NOTAMs for that airfield.



MET'MAP, your aeronautical weather chart ! - Copyright ORBIFLY December 2007 - Disclaimer

ORBIFLY MET'MAP TEAM :

Programming & Development : Alexandra Zaïnal
Concept & Development : Baudouin d'Aumeries
Co-Development & Prog : Marc-Olivier Méhu
Technical & hardware support : Manuel Goepfert

Contact : metmap@orbifly.com




SOURCES & CREDITS :

   NOAA